sensor_id;sensor_type;location;lat;lon;timestamp;pressure;altitude;pressure_sealevel;temperature
28803;BMP280;15949;55.656;37.422;2023-09-07T00:01:47;99954.22;;;8.18
28803;BMP280;15949;55.656;37.422;2023-09-07T00:06:52;99952.25;;;8.15
28803;BMP280;15949;55.656;37.422;2023-09-07T00:11:58;99952.66;;;8.00
28803;BMP280;15949;55.656;37.422;2023-09-07T00:17:04;99958.41;;;7.97
28803;BMP280;15949;55.656;37.422;2023-09-07T00:22:10;99963.59;;;7.97
28803;BMP280;15949;55.656;37.422;2023-09-07T00:27:15;99973.53;;;7.95
28803;BMP280;15949;55.656;37.422;2023-09-07T00:32:21;99971.94;;;7.85
28803;BMP280;15949;55.656;37.422;2023-09-07T00:37:26;99972.88;;;7.89
28803;BMP280;15949;55.656;37.422;2023-09-07T00:42:32;99977.63;;;7.96
28803;BMP280;15949;55.656;37.422;2023-09-07T00:47:38;99977.91;;;7.86
28803;BMP280;15949;55.656;37.422;2023-09-07T00:52:45;99989.31;;;7.85
28803;BMP280;15949;55.656;37.422;2023-09-07T00:57:52;99981.84;;;7.83
28803;BMP280;15949;55.656;37.422;2023-09-07T01:02:57;99981.53;;;7.85
28803;BMP280;15949;55.656;37.422;2023-09-07T01:08:28;99984.28;;;7.80
28803;BMP280;15949;55.656;37.422;2023-09-07T01:13:34;99996.31;;;7.76
28803;BMP280;15949;55.656;37.422;2023-09-07T01:18:40;100002.56;;;7.75
28803;BMP280;15949;55.656;37.422;2023-09-07T01:23:46;100003.03;;;7.77
28803;BMP280;15949;55.656;37.422;2023-09-07T01:28:53;100003.16;;;7.72
28803;BMP280;15949;55.656;37.422;2023-09-07T01:33:58;100007.41;;;7.68
28803;BMP280;15949;55.656;37.422;2023-09-07T01:39:04;100010.56;;;7.65
28803;BMP280;15949;55.656;37.422;2023-09-07T01:44:13;100009.72;;;7.56
28803;BMP280;15949;55.656;37.422;2023-09-07T01:49:19;100009.38;;;7.49
28803;BMP280;15949;55.656;37.422;2023-09-07T01:54:25;100018.41;;;7.51
28803;BMP280;15949;55.656;37.422;2023-09-07T01:59:30;100020.81;;;7.48
28803;BMP280;15949;55.656;37.422;2023-09-07T02:04:36;100024.75;;;7.45
28803;BMP280;15949;55.656;37.422;2023-09-07T02:09:41;100025.16;;;7.39
28803;BMP280;15949;55.656;37.422;2023-09-07T02:14:47;100038.63;;;7.41
28803;BMP280;15949;55.656;37.422;2023-09-07T02:19:53;100042.31;;;7.48
28803;BMP280;15949;55.656;37.422;2023-09-07T02:24:59;100037.59;;;7.64
28803;BMP280;15949;55.656;37.422;2023-09-07T02:30:05;100047.09;;;7.68
28803;BMP280;15949;55.656;37.422;2023-09-07T02:35:10;100042.97;;;7.67
28803;BMP280;15949;55.656;37.422;2023-09-07T02:40:16;100053.50;;;7.71
28803;BMP280;15949;55.656;37.422;2023-09-07T02:45:22;100054.91;;;7.77
28803;BMP280;15949;55.656;37.422;2023-09-07T02:50:32;100059.41;;;7.85
28803;BMP280;15949;55.656;37.422;2023-09-07T02:55:39;100061.72;;;7.86
28803;BMP280;15949;55.656;37.422;2023-09-07T03:00:45;100065.06;;;7.87
28803;BMP280;15949;55.656;37.422;2023-09-07T03:05:52;100065.22;;;7.82
28803;BMP280;15949;55.656;37.422;2023-09-07T03:10:57;100070.94;;;7.79
28803;BMP280;15949;55.656;37.422;2023-09-07T03:16:04;100070.88;;;7.84
28803;BMP280;15949;55.656;37.422;2023-09-07T03:21:10;100073.47;;;7.84
28803;BMP280;15949;55.656;37.422;2023-09-07T03:26:15;100086.44;;;7.84
28803;BMP280;15949;55.656;37.422;2023-09-07T03:31:21;100085.19;;;7.81
28803;BMP280;15949;55.656;37.422;2023-09-07T03:36:27;100088.19;;;7.75
28803;BMP280;15949;55.656;37.422;2023-09-07T03:41:32;100106.81;;;7.77
28803;BMP280;15949;55.656;37.422;2023-09-07T03:46:38;100095.97;;;7.75
28803;BMP280;15949;55.656;37.422;2023-09-07T03:51:43;100103.28;;;7.73
28803;BMP280;15949;55.656;37.422;2023-09-07T03:56:49;100097.81;;;7.74
28803;BMP280;15949;55.656;37.422;2023-09-07T04:01:55;100108.94;;;7.75
28803;BMP280;15949;55.656;37.422;2023-09-07T04:07:00;100125.00;;;7.77
28803;BMP280;15949;55.656;37.422;2023-09-07T04:12:06;100121.53;;;7.81
28803;BMP280;15949;55.656;37.422;2023-09-07T04:17:12;100143.81;;;7.82
28803;BMP280;15949;55.656;37.422;2023-09-07T04:22:18;100127.84;;;7.89
28803;BMP280;15949;55.656;37.422;2023-09-07T04:27:23;100148.97;;;7.96
28803;BMP280;15949;55.656;37.422;2023-09-07T04:32:29;100151.28;;;7.98
28803;BMP280;15949;55.656;37.422;2023-09-07T04:37:34;100151.94;;;8.03
28803;BMP280;15949;55.656;37.422;2023-09-07T04:42:40;100148.47;;;8.08
28803;BMP280;15949;55.656;37.422;2023-09-07T04:47:46;100158.81;;;8.21
28803;BMP280;15949;55.656;37.422;2023-09-07T04:52:52;100161.41;;;8.21
28803;BMP280;15949;55.656;37.422;2023-09-07T04:57:58;100160.41;;;8.31
28803;BMP280;15949;55.656;37.422;2023-09-07T05:03:04;100163.06;;;8.39
28803;BMP280;15949;55.656;37.422;2023-09-07T05:08:10;100169.53;;;8.51
28803;BMP280;15949;55.656;37.422;2023-09-07T05:13:15;100171.41;;;8.59
28803;BMP280;15949;55.656;37.422;2023-09-07T05:18:22;100172.03;;;8.64
28803;BMP280;15949;55.656;37.422;2023-09-07T05:23:27;100176.28;;;8.82
28803;BMP280;15949;55.656;37.422;2023-09-07T05:28:33;100181.75;;;9.03
28803;BMP280;15949;55.656;37.422;2023-09-07T05:33:39;100181.63;;;9.17
28803;BMP280;15949;55.656;37.422;2023-09-07T05:38:44;100177.38;;;9.29
28803;BMP280;15949;55.656;37.422;2023-09-07T05:43:50;100181.97;;;9.32
28803;BMP280;15949;55.656;37.422;2023-09-07T05:48:55;100184.78;;;9.53
28803;BMP280;15949;55.656;37.422;2023-09-07T05:54:01;100186.19;;;9.68
28803;BMP280;15949;55.656;37.422;2023-09-07T05:59:07;100179.78;;;9.74
28803;BMP280;15949;55.656;37.422;2023-09-07T06:04:12;100183.91;;;9.92
28803;BMP280;15949;55.656;37.422;2023-09-07T06:09:18;100177.81;;;10.05
28803;BMP280;15949;55.656;37.422;2023-09-07T06:14:24;100189.75;;;10.32
28803;BMP280;15949;55.656;37.422;2023-09-07T06:19:31;100200.44;;;10.56
28803;BMP280;15949;55.656;37.422;2023-09-07T06:24:36;100204.81;;;10.72
28803;BMP280;15949;55.656;37.422;2023-09-07T06:29:42;100210.06;;;11.02
28803;BMP280;15949;55.656;37.422;2023-09-07T06:34:48;100211.69;;;11.23
28803;BMP280;15949;55.656;37.422;2023-09-07T06:39:53;100210.41;;;11.29
28803;BMP280;15949;55.656;37.422;2023-09-07T06:44:59;100219.00;;;11.30
28803;BMP280;15949;55.656;37.422;2023-09-07T06:50:05;100218.28;;;11.50
28803;BMP280;15949;55.656;37.422;2023-09-07T06:55:11;100212.81;;;11.84
28803;BMP280;15949;55.656;37.422;2023-09-07T07:00:16;100218.09;;;11.96
28803;BMP280;15949;55.656;37.422;2023-09-07T07:05:22;100216.47;;;12.04
28803;BMP280;15949;55.656;37.422;2023-09-07T07:10:28;100233.41;;;12.19
28803;BMP280;15949;55.656;37.422;2023-09-07T07:15:35;100234.34;;;12.35
28803;BMP280;15949;55.656;37.422;2023-09-07T07:20:42;100237.88;;;12.18
28803;BMP280;15949;55.656;37.422;2023-09-07T07:25:49;100252.19;;;12.21
28803;BMP280;15949;55.656;37.422;2023-09-07T07:30:55;100246.22;;;12.32
28803;BMP280;15949;55.656;37.422;2023-09-07T07:36:01;100246.06;;;12.61
28803;BMP280;15949;55.656;37.422;2023-09-07T07:41:06;100246.34;;;12.93
28803;BMP280;15949;55.656;37.422;2023-09-07T07:46:12;100239.25;;;13.05
28803;BMP280;15949;55.656;37.422;2023-09-07T07:51:21;100233.09;;;13.37
28803;BMP280;15949;55.656;37.422;2023-09-07T07:56:26;100237.53;;;13.73
28803;BMP280;15949;55.656;37.422;2023-09-07T08:01:32;100222.84;;;13.57
28803;BMP280;15949;55.656;37.422;2023-09-07T08:06:38;100219.31;;;13.65
28803;BMP280;15949;55.656;37.422;2023-09-07T08:11:43;100215.91;;;13.64
28803;BMP280;15949;55.656;37.422;2023-09-07T08:16:50;100223.28;;;14.02
28803;BMP280;15949;55.656;37.422;2023-09-07T08:21:56;100216.19;;;14.02
28803;BMP280;15949;55.656;37.422;2023-09-07T08:27:02;100219.28;;;14.51
28803;BMP280;15949;55.656;37.422;2023-09-07T08:32:07;100220.59;;;14.42
28803;BMP280;15949;55.656;37.422;2023-09-07T08:37:17;100208.16;;;13.95
28803;BMP280;15949;55.656;37.422;2023-09-07T08:42:22;100222.63;;;14.64
28803;BMP280;15949;55.656;37.422;2023-09-07T08:47:28;100206.50;;;14.81
28803;BMP280;15949;55.656;37.422;2023-09-07T08:52:37;100217.97;;;14.73
28803;BMP280;15949;55.656;37.422;2023-09-07T08:57:42;100199.66;;;14.76
28803;BMP280;15949;55.656;37.422;2023-09-07T09:02:48;100203.53;;;14.82
28803;BMP280;15949;55.656;37.422;2023-09-07T09:08:03;100212.75;;;14.30
28803;BMP280;15949;55.656;37.422;2023-09-07T09:13:09;100217.06;;;15.00
28803;BMP280;15949;55.656;37.422;2023-09-07T09:18:16;100208.75;;;15.71
28803;BMP280;15949;55.656;37.422;2023-09-07T09:23:22;100198.94;;;15.30
28803;BMP280;15949;55.656;37.422;2023-09-07T09:28:27;100212.19;;;15.18
28803;BMP280;15949;55.656;37.422;2023-09-07T09:33:33;100212.97;;;15.57
28803;BMP280;15949;55.656;37.422;2023-09-07T09:38:39;100204.66;;;15.74
28803;BMP280;15949;55.656;37.422;2023-09-07T09:43:46;100207.78;;;15.60
28803;BMP280;15949;55.656;37.422;2023-09-07T09:48:55;100205.13;;;16.47
28803;BMP280;15949;55.656;37.422;2023-09-07T09:54:03;100206.59;;;15.38
28803;BMP280;15949;55.656;37.422;2023-09-07T09:59:09;100198.66;;;15.35
28803;BMP280;15949;55.656;37.422;2023-09-07T10:04:16;100199.59;;;16.07
28803;BMP280;15949;55.656;37.422;2023-09-07T10:09:22;100194.97;;;16.46
28803;BMP280;15949;55.656;37.422;2023-09-07T10:14:38;100191.22;;;17.32
28803;BMP280;15949;55.656;37.422;2023-09-07T10:19:44;100186.53;;;16.59
28803;BMP280;15949;55.656;37.422;2023-09-07T10:24:58;100195.03;;;16.26
28803;BMP280;15949;55.656;37.422;2023-09-07T10:30:13;100191.34;;;16.31
28803;BMP280;15949;55.656;37.422;2023-09-07T10:35:24;100192.44;;;17.09
28803;BMP280;15949;55.656;37.422;2023-09-07T10:40:31;100187.56;;;16.81
28803;BMP280;15949;55.656;37.422;2023-09-07T10:45:37;100203.38;;;16.55
28803;BMP280;15949;55.656;37.422;2023-09-07T10:50:46;100179.84;;;16.16
28803;BMP280;15949;55.656;37.422;2023-09-07T10:55:52;100177.88;;;17.18
28803;BMP280;15949;55.656;37.422;2023-09-07T11:00:58;100187.22;;;17.12
28803;BMP280;15949;55.656;37.422;2023-09-07T11:06:14;100186.59;;;16.66
28803;BMP280;15949;55.656;37.422;2023-09-07T11:11:20;100191.84;;;16.14
28803;BMP280;15949;55.656;37.422;2023-09-07T11:16:28;100190.41;;;16.69
28803;BMP280;15949;55.656;37.422;2023-09-07T11:21:35;100176.22;;;17.40
28803;BMP280;15949;55.656;37.422;2023-09-07T11:26:44;100194.44;;;17.19
28803;BMP280;15949;55.656;37.422;2023-09-07T11:31:50;100191.94;;;16.99
28803;BMP280;15949;55.656;37.422;2023-09-07T11:36:56;100177.56;;;17.23
28803;BMP280;15949;55.656;37.422;2023-09-07T11:42:01;100174.34;;;17.77
28803;BMP280;15949;55.656;37.422;2023-09-07T11:47:07;100168.88;;;17.96
28803;BMP280;15949;55.656;37.422;2023-09-07T11:52:12;100175.50;;;17.06
28803;BMP280;15949;55.656;37.422;2023-09-07T11:57:18;100181.13;;;17.08
28803;BMP280;15949;55.656;37.422;2023-09-07T12:02:24;100165.94;;;17.64
28803;BMP280;15949;55.656;37.422;2023-09-07T12:07:29;100162.88;;;18.03
28803;BMP280;15949;55.656;37.422;2023-09-07T12:12:36;100156.66;;;17.81
28803;BMP280;15949;55.656;37.422;2023-09-07T12:17:42;100161.72;;;16.90
28803;BMP280;15949;55.656;37.422;2023-09-07T12:22:48;100168.50;;;16.12
28803;BMP280;15949;55.656;37.422;2023-09-07T12:27:54;100164.97;;;16.01
28803;BMP280;15949;55.656;37.422;2023-09-07T12:33:02;100169.00;;;16.44
28803;BMP280;15949;55.656;37.422;2023-09-07T12:38:08;100162.16;;;16.40
28803;BMP280;15949;55.656;37.422;2023-09-07T12:43:15;100170.59;;;16.26
28803;BMP280;15949;55.656;37.422;2023-09-07T12:48:21;100164.69;;;16.59
28803;BMP280;15949;55.656;37.422;2023-09-07T12:53:27;100173.47;;;16.96
28803;BMP280;15949;55.656;37.422;2023-09-07T12:58:32;100159.34;;;17.44
28803;BMP280;15949;55.656;37.422;2023-09-07T13:03:38;100143.41;;;17.74
28803;BMP280;15949;55.656;37.422;2023-09-07T13:08:44;100143.38;;;17.67
28803;BMP280;15949;55.656;37.422;2023-09-07T13:13:52;100151.25;;;16.64
28803;BMP280;15949;55.656;37.422;2023-09-07T13:18:58;100152.72;;;16.12
28803;BMP280;15949;55.656;37.422;2023-09-07T13:24:04;100146.22;;;16.06
28803;BMP280;15949;55.656;37.422;2023-09-07T13:29:10;100148.47;;;16.31
28803;BMP280;15949;55.656;37.422;2023-09-07T13:34:15;100149.50;;;16.49
28803;BMP280;15949;55.656;37.422;2023-09-07T13:39:21;100139.91;;;16.89
28803;BMP280;15949;55.656;37.422;2023-09-07T13:44:27;100145.03;;;16.79
28803;BMP280;15949;55.656;37.422;2023-09-07T13:49:33;100130.25;;;17.00
28803;BMP280;15949;55.656;37.422;2023-09-07T13:54:38;100129.75;;;16.62
28803;BMP280;15949;55.656;37.422;2023-09-07T13:59:44;100132.06;;;16.37
28803;BMP280;15949;55.656;37.422;2023-09-07T14:04:49;100130.38;;;16.25
28803;BMP280;15949;55.656;37.422;2023-09-07T14:09:55;100126.31;;;16.58
28803;BMP280;15949;55.656;37.422;2023-09-07T14:15:01;100119.22;;;16.32
28803;BMP280;15949;55.656;37.422;2023-09-07T14:20:07;100118.97;;;15.69
28803;BMP280;15949;55.656;37.422;2023-09-07T14:25:14;100125.09;;;15.16
28803;BMP280;15949;55.656;37.422;2023-09-07T14:30:21;100115.59;;;14.73
28803;BMP280;15949;55.656;37.422;2023-09-07T14:35:27;100122.50;;;14.46
28803;BMP280;15949;55.656;37.422;2023-09-07T14:40:32;100120.81;;;14.23
28803;BMP280;15949;55.656;37.422;2023-09-07T14:45:38;100110.56;;;14.02
28803;BMP280;15949;55.656;37.422;2023-09-07T14:50:44;100116.56;;;13.87
28803;BMP280;15949;55.656;37.422;2023-09-07T14:55:49;100113.66;;;13.61
28803;BMP280;15949;55.656;37.422;2023-09-07T15:00:55;100116.06;;;13.54
28803;BMP280;15949;55.656;37.422;2023-09-07T15:06:01;100114.84;;;13.35
28803;BMP280;15949;55.656;37.422;2023-09-07T15:11:06;100115.06;;;13.30
28803;BMP280;15949;55.656;37.422;2023-09-07T15:16:12;100121.88;;;13.19
28803;BMP280;15949;55.656;37.422;2023-09-07T15:21:20;100129.31;;;13.05
28803;BMP280;15949;55.656;37.422;2023-09-07T15:26:26;100120.16;;;12.99
28803;BMP280;15949;55.656;37.422;2023-09-07T15:31:31;100122.81;;;12.87
28803;BMP280;15949;55.656;37.422;2023-09-07T15:36:37;100117.50;;;12.71
28803;BMP280;15949;55.656;37.422;2023-09-07T15:41:43;100120.72;;;12.68
28803;BMP280;15949;55.656;37.422;2023-09-07T15:46:51;100119.66;;;12.57
28803;BMP280;15949;55.656;37.422;2023-09-07T15:51:57;100135.09;;;12.50
28803;BMP280;15949;55.656;37.422;2023-09-07T15:57:03;100131.53;;;12.31
28803;BMP280;15949;55.656;37.422;2023-09-07T16:02:12;100127.34;;;12.18
28803;BMP280;15949;55.656;37.422;2023-09-07T16:07:18;100137.97;;;12.00
28803;BMP280;15949;55.656;37.422;2023-09-07T16:12:23;100136.59;;;11.82
28803;BMP280;15949;55.656;37.422;2023-09-07T16:17:29;100127.63;;;11.71
28803;BMP280;15949;55.656;37.422;2023-09-07T16:22:35;100139.81;;;11.67
28803;BMP280;15949;55.656;37.422;2023-09-07T16:27:40;100135.22;;;11.64
28803;BMP280;15949;55.656;37.422;2023-09-07T16:32:46;100129.94;;;11.52
28803;BMP280;15949;55.656;37.422;2023-09-07T16:37:52;100125.72;;;11.39
28803;BMP280;15949;55.656;37.422;2023-09-07T16:42:57;100124.59;;;11.28
28803;BMP280;15949;55.656;37.422;2023-09-07T16:48:03;100125.03;;;11.30
28803;BMP280;15949;55.656;37.422;2023-09-07T16:53:09;100119.28;;;11.16
28803;BMP280;15949;55.656;37.422;2023-09-07T16:58:14;100124.00;;;11.02
28803;BMP280;15949;55.656;37.422;2023-09-07T17:03:20;100124.50;;;10.95
28803;BMP280;15949;55.656;37.422;2023-09-07T17:08:26;100124.56;;;10.78
28803;BMP280;15949;55.656;37.422;2023-09-07T17:13:31;100122.09;;;10.81
28803;BMP280;15949;55.656;37.422;2023-09-07T17:18:37;100114.31;;;10.73
28803;BMP280;15949;55.656;37.422;2023-09-07T17:23:43;100115.25;;;10.68
28803;BMP280;15949;55.656;37.422;2023-09-07T17:28:48;100114.59;;;10.71
28803;BMP280;15949;55.656;37.422;2023-09-07T17:33:57;100113.97;;;10.83
28803;BMP280;15949;55.656;37.422;2023-09-07T17:39:03;100109.44;;;11.01
28803;BMP280;15949;55.656;37.422;2023-09-07T17:44:09;100118.59;;;11.07
28803;BMP280;15949;55.656;37.422;2023-09-07T17:49:17;100118.22;;;11.17
28803;BMP280;15949;55.656;37.422;2023-09-07T17:54:23;100106.81;;;11.21
28803;BMP280;15949;55.656;37.422;2023-09-07T17:59:28;100104.53;;;11.20
28803;BMP280;15949;55.656;37.422;2023-09-07T18:04:34;100111.47;;;11.16
28803;BMP280;15949;55.656;37.422;2023-09-07T18:09:40;100108.91;;;11.07
28803;BMP280;15949;55.656;37.422;2023-09-07T18:14:45;100098.34;;;11.04
28803;BMP280;15949;55.656;37.422;2023-09-07T18:19:52;100104.63;;;11.03
28803;BMP280;15949;55.656;37.422;2023-09-07T18:24:58;100105.06;;;11.13
28803;BMP280;15949;55.656;37.422;2023-09-07T18:30:04;100094.97;;;11.24
28803;BMP280;15949;55.656;37.422;2023-09-07T18:35:10;100081.50;;;11.22
28803;BMP280;15949;55.656;37.422;2023-09-07T18:40:16;100091.06;;;11.18
28803;BMP280;15949;55.656;37.422;2023-09-07T18:45:24;100083.66;;;11.20
28803;BMP280;15949;55.656;37.422;2023-09-07T18:50:31;100083.81;;;11.23
28803;BMP280;15949;55.656;37.422;2023-09-07T18:55:40;100072.84;;;11.30
28803;BMP280;15949;55.656;37.422;2023-09-07T19:00:46;100078.25;;;11.25
28803;BMP280;15949;55.656;37.422;2023-09-07T19:05:51;100083.66;;;11.20
28803;BMP280;15949;55.656;37.422;2023-09-07T19:10:57;100080.63;;;11.18
28803;BMP280;15949;55.656;37.422;2023-09-07T19:16:03;100064.28;;;11.21
28803;BMP280;15949;55.656;37.422;2023-09-07T19:21:08;100059.72;;;11.18
28803;BMP280;15949;55.656;37.422;2023-09-07T19:26:28;100063.31;;;11.13
28803;BMP280;15949;55.656;37.422;2023-09-07T19:31:36;100052.22;;;11.16
28803;BMP280;15949;55.656;37.422;2023-09-07T19:36:42;100048.63;;;11.21
28803;BMP280;15949;55.656;37.422;2023-09-07T19:41:48;100047.28;;;11.15
28803;BMP280;15949;55.656;37.422;2023-09-07T19:46:53;100047.25;;;11.23
28803;BMP280;15949;55.656;37.422;2023-09-07T19:52:01;100047.47;;;11.18
28803;BMP280;15949;55.656;37.422;2023-09-07T19:57:06;100034.25;;;11.15
28803;BMP280;15949;55.656;37.422;2023-09-07T20:02:12;100038.75;;;11.14
28803;BMP280;15949;55.656;37.422;2023-09-07T20:07:18;100033.84;;;11.13
28803;BMP280;15949;55.656;37.422;2023-09-07T20:12:23;100030.16;;;11.14
28803;BMP280;15949;55.656;37.422;2023-09-07T20:17:29;100022.50;;;11.09
28803;BMP280;15949;55.656;37.422;2023-09-07T20:22:35;100020.50;;;11.06
28803;BMP280;15949;55.656;37.422;2023-09-07T20:27:41;100011.28;;;11.08
28803;BMP280;15949;55.656;37.422;2023-09-07T20:32:47;100004.84;;;11.06
28803;BMP280;15949;55.656;37.422;2023-09-07T20:37:52;99998.63;;;10.98
28803;BMP280;15949;55.656;37.422;2023-09-07T20:42:58;99990.84;;;10.89
28803;BMP280;15949;55.656;37.422;2023-09-07T20:48:04;100001.00;;;10.91
28803;BMP280;15949;55.656;37.422;2023-09-07T20:53:09;100000.56;;;10.89
28803;BMP280;15949;55.656;37.422;2023-09-07T20:58:15;99997.94;;;10.89
28803;BMP280;15949;55.656;37.422;2023-09-07T21:03:21;99999.94;;;10.83
28803;BMP280;15949;55.656;37.422;2023-09-07T21:08:26;99982.97;;;10.77
28803;BMP280;15949;55.656;37.422;2023-09-07T21:13:32;99983.69;;;10.86
28803;BMP280;15949;55.656;37.422;2023-09-07T21:18:37;99984.53;;;10.78
28803;BMP280;15949;55.656;37.422;2023-09-07T21:23:43;99984.13;;;10.88
28803;BMP280;15949;55.656;37.422;2023-09-07T21:28:49;99981.34;;;10.94
28803;BMP280;15949;55.656;37.422;2023-09-07T21:33:55;99973.63;;;10.97
28803;BMP280;15949;55.656;37.422;2023-09-07T21:39:00;99969.84;;;10.95
28803;BMP280;15949;55.656;37.422;2023-09-07T21:44:06;99965.63;;;10.81
28803;BMP280;15949;55.656;37.422;2023-09-07T21:49:12;99964.41;;;10.79
28803;BMP280;15949;55.656;37.422;2023-09-07T21:54:17;99965.56;;;10.69
28803;BMP280;15949;55.656;37.422;2023-09-07T21:59:23;99967.25;;;10.65
28803;BMP280;15949;55.656;37.422;2023-09-07T22:04:29;99962.31;;;10.72
28803;BMP280;15949;55.656;37.422;2023-09-07T22:09:35;99947.09;;;10.74
28803;BMP280;15949;55.656;37.422;2023-09-07T22:14:41;99946.84;;;10.67
28803;BMP280;15949;55.656;37.422;2023-09-07T22:19:46;99932.09;;;10.71
28803;BMP280;15949;55.656;37.422;2023-09-07T22:24:52;99937.13;;;10.76
28803;BMP280;15949;55.656;37.422;2023-09-07T22:29:58;99937.97;;;10.68
28803;BMP280;15949;55.656;37.422;2023-09-07T22:35:04;99938.91;;;10.64
28803;BMP280;15949;55.656;37.422;2023-09-07T22:40:10;99929.81;;;10.70
28803;BMP280;15949;55.656;37.422;2023-09-07T22:45:20;99933.34;;;10.65
28803;BMP280;15949;55.656;37.422;2023-09-07T22:50:27;99926.81;;;10.59
28803;BMP280;15949;55.656;37.422;2023-09-07T22:55:46;99922.09;;;10.53
28803;BMP280;15949;55.656;37.422;2023-09-07T23:00:52;99915.72;;;10.50
28803;BMP280;15949;55.656;37.422;2023-09-07T23:05:58;99915.81;;;10.54
28803;BMP280;15949;55.656;37.422;2023-09-07T23:11:03;99905.44;;;10.45
28803;BMP280;15949;55.656;37.422;2023-09-07T23:16:09;99897.47;;;10.50
28803;BMP280;15949;55.656;37.422;2023-09-07T23:21:15;99897.00;;;10.48
28803;BMP280;15949;55.656;37.422;2023-09-07T23:26:21;99890.81;;;10.53
28803;BMP280;15949;55.656;37.422;2023-09-07T23:31:26;99886.13;;;10.46
28803;BMP280;15949;55.656;37.422;2023-09-07T23:36:32;99893.66;;;10.39
28803;BMP280;15949;55.656;37.422;2023-09-07T23:41:37;99885.44;;;10.37
28803;BMP280;15949;55.656;37.422;2023-09-07T23:46:43;99889.38;;;10.43
28803;BMP280;15949;55.656;37.422;2023-09-07T23:51:50;99889.22;;;10.40
28803;BMP280;15949;55.656;37.422;2023-09-07T23:56:56;99885.56;;;10.41
